KADW

Joint Base Andrews Airport

Camp Springs, Maryland, USA
TAF KADW 190100Z 1901/2007 30009KT 9999 SKC QNH3030INS BECMG 1914/1915 21010G15KT 9999 SKC QNH3010INS BECMG 1922/1923 21009KT 9999 BKN120 QNH3008INS BECMG 2005/2006 21009KT 9999 SCT030 BKN050 QNH2995INS TX18/1921Z TN03/1912Z
Issued Valid From Valid To
Oct-19 @ 01:00 UTC
(8 hours ago)
Oct-19 @ 01:00 UTC
(8 hours ago)
Oct-20 @ 07:00 UTC
(in 22 hours)
Oct-19 @ 01:00 to Oct-19 @ 14:00
TAF KADW 190100Z 1901/2007 30009KT 9999 SKC QNH3030INS
Wind Visibility Clouds Readings
300° at 9 knots Greater than 6 miles
  • Clear skies
Altimeter 30.3" Hg
Pressure 1026 hPa
Becoming Oct-19 @ 14:00 to Oct-19 @ 22:00
BECMG 1914/1915 21010G15KT 9999 SKC QNH3010INS
Wind Visibility Clouds Readings
210° at 10 knots
 Gusting to 15 knots
Greater than 6 miles
  • Clear skies
Altimeter 30.09" Hg
Pressure 1019 hPa
Becoming Oct-19 @ 22:00 to Oct-20 @ 05:00
BECMG 1922/1923 21009KT 9999 BKN120 QNH3008INS
Wind Visibility Clouds Readings
210° at 9 knots Greater than 6 miles
  • Broken at 12,000' AGL
Altimeter 30.09" Hg
Pressure 1019 hPa
Becoming Oct-20 @ 05:00 to Oct-20 @ 07:00
BECMG 2005/2006 21009KT 9999 SCT030 BKN050 QNH2995INS TX18/1921Z TN03/1912Z
Wind Visibility Clouds Readings
210° at 9 knots Greater than 6 miles
  • Scattered at 3,000' AGL
  • Broken at 5,000' AGL
Altimeter 29.94" Hg
Pressure 1014 hPa
TAF KADW 190100Z 1901/2007 30009KT 9999 SKC QNH3030INS BECMG 1914/1915 21010G15KT 9999 SKC QNH3010INS BECMG 1922/1923 21009KT 9999 BKN120 QNH3008INS BECMG 2005/2006 21009KT 9999 SCT030 BKN050 QNH2995INS TX18/1921Z TN03/1912Z
Issued Oct-19 @ 01:00 UTC
(8 hours ago)
Valid From Oct-19 @ 01:00 UTC
(8 hours ago)
Valid To Oct-20 @ 07:00 UTC
(in 22 hours)
Oct-19 @ 01:00 - Oct-19 @ 14:00
Wind Visibility
300° at 9 knots Greater than 6 miles
Clouds
  • Clear skies
Becoming Oct-19 @ 14:00 - Oct-19 @ 22:00
Wind Visibility
210° at 10 knots
 Gusting to 15 knots
Greater than 6 miles
Clouds
  • Clear skies
Becoming Oct-19 @ 22:00 - Oct-20 @ 05:00
Wind Visibility
210° at 9 knots Greater than 6 miles
Clouds
  • Broken at 12,000' AGL
Becoming Oct-20 @ 05:00 - Oct-20 @ 07:00
Wind Visibility
210° at 9 knots Greater than 6 miles
Clouds
  • Scattered at 3,000' AGL
  • Broken at 5,000' AGL